sensor_id;sensor_type;location;lat;lon;timestamp;temperature;humidity
66096;SHT31;53861;53.422;14.530;2022-07-18T00:02:22;14.18;81.59
66096;SHT31;53861;53.422;14.530;2022-07-18T00:04:50;14.16;82.70
66096;SHT31;53861;53.422;14.530;2022-07-18T00:07:18;14.16;82.77
66096;SHT31;53861;53.422;14.530;2022-07-18T00:09:46;14.13;82.35
66096;SHT31;53861;53.422;14.530;2022-07-18T00:12:13;14.16;82.57
66096;SHT31;53861;53.422;14.530;2022-07-18T00:14:41;14.12;82.34
66096;SHT31;53861;53.422;14.530;2022-07-18T00:17:09;14.18;82.80
66096;SHT31;53861;53.422;14.530;2022-07-18T00:19:38;14.25;82.63
66096;SHT31;53861;53.422;14.530;2022-07-18T00:22:15;14.36;82.54
66096;SHT31;53861;53.422;14.530;2022-07-18T00:24:43;14.41;82.49
66096;SHT31;53861;53.422;14.530;2022-07-18T00:27:10;14.40;81.90
66096;SHT31;53861;53.422;14.530;2022-07-18T00:29:38;14.37;81.97
66096;SHT31;53861;53.422;14.530;2022-07-18T00:32:07;14.46;82.21
66096;SHT31;53861;53.422;14.530;2022-07-18T00:34:35;14.41;82.46
66096;SHT31;53861;53.422;14.530;2022-07-18T00:37:05;14.43;82.68
66096;SHT31;53861;53.422;14.530;2022-07-18T00:39:33;14.50;82.02
66096;SHT31;53861;53.422;14.530;2022-07-18T00:42:00;14.50;82.43
66096;SHT31;53861;53.422;14.530;2022-07-18T00:44:28;14.50;82.70
66096;SHT31;53861;53.422;14.530;2022-07-18T00:46:58;14.53;82.51
66096;SHT31;53861;53.422;14.530;2022-07-18T00:49:27;14.60;82.37
66096;SHT31;53861;53.422;14.530;2022-07-18T00:51:55;14.67;82.18
66096;SHT31;53861;53.422;14.530;2022-07-18T00:54:24;14.69;81.31
66096;SHT31;53861;53.422;14.530;2022-07-18T00:56:52;14.71;81.87
66096;SHT31;53861;53.422;14.530;2022-07-18T00:59:20;14.66;82.59
66096;SHT31;53861;53.422;14.530;2022-07-18T01:01:48;14.64;82.01
66096;SHT31;53861;53.422;14.530;2022-07-18T01:04:18;14.61;82.33
66096;SHT31;53861;53.422;14.530;2022-07-18T01:06:47;14.63;81.93
66096;SHT31;53861;53.422;14.530;2022-07-18T01:09:15;14.63;82.47
66096;SHT31;53861;53.422;14.530;2022-07-18T01:11:46;14.61;82.31
66096;SHT31;53861;53.422;14.530;2022-07-18T01:14:14;14.57;82.62
66096;SHT31;53861;53.422;14.530;2022-07-18T01:16:42;14.59;82.26
66096;SHT31;53861;53.422;14.530;2022-07-18T01:19:10;14.61;82.44
66096;SHT31;53861;53.422;14.530;2022-07-18T01:21:39;14.66;83.01
66096;SHT31;53861;53.422;14.530;2022-07-18T01:24:07;14.67;82.46
66096;SHT31;53861;53.422;14.530;2022-07-18T01:26:34;14.61;82.69
66096;SHT31;53861;53.422;14.530;2022-07-18T01:29:03;14.59;83.09
66096;SHT31;53861;53.422;14.530;2022-07-18T01:31:30;14.69;82.42
66096;SHT31;53861;53.422;14.530;2022-07-18T01:33:59;14.60;82.78
66096;SHT31;53861;53.422;14.530;2022-07-18T01:36:27;14.61;83.20
66096;SHT31;53861;53.422;14.530;2022-07-18T01:38:56;14.55;83.69
66096;SHT31;53861;53.422;14.530;2022-07-18T01:41:23;14.59;83.21
66096;SHT31;53861;53.422;14.530;2022-07-18T01:43:51;14.61;83.42
66096;SHT31;53861;53.422;14.530;2022-07-18T01:46:18;14.63;83.18
66096;SHT31;53861;53.422;14.530;2022-07-18T01:48:46;14.67;82.89
66096;SHT31;53861;53.422;14.530;2022-07-18T01:51:13;14.66;82.51
66096;SHT31;53861;53.422;14.530;2022-07-18T01:53:41;14.64;82.77
66096;SHT31;53861;53.422;14.530;2022-07-18T01:56:12;14.59;82.93
66096;SHT31;53861;53.422;14.530;2022-07-18T01:58:40;14.56;84.39
66096;SHT31;53861;53.422;14.530;2022-07-18T02:01:07;14.44;84.10
66096;SHT31;53861;53.422;14.530;2022-07-18T02:03:35;14.40;84.73
66096;SHT31;53861;53.422;14.530;2022-07-18T02:06:02;14.33;84.60
66096;SHT31;53861;53.422;14.530;2022-07-18T02:08:30;14.40;84.65
66096;SHT31;53861;53.422;14.530;2022-07-18T02:10:58;14.32;84.84
66096;SHT31;53861;53.422;14.530;2022-07-18T02:13:26;14.30;85.13
66096;SHT31;53861;53.422;14.530;2022-07-18T02:15:54;14.37;85.42
66096;SHT31;53861;53.422;14.530;2022-07-18T02:18:22;14.37;84.83
66096;SHT31;53861;53.422;14.530;2022-07-18T02:20:50;14.43;84.83
66096;SHT31;53861;53.422;14.530;2022-07-18T02:23:17;14.37;85.25
66096;SHT31;53861;53.422;14.530;2022-07-18T02:25:45;14.36;85.56
66096;SHT31;53861;53.422;14.530;2022-07-18T02:28:13;14.29;85.87
66096;SHT31;53861;53.422;14.530;2022-07-18T02:30:42;14.25;85.80
66096;SHT31;53861;53.422;14.530;2022-07-18T02:33:10;14.33;85.61
66096;SHT31;53861;53.422;14.530;2022-07-18T02:35:38;14.36;85.72
66096;SHT31;53861;53.422;14.530;2022-07-18T02:38:05;14.40;85.73
66096;SHT31;53861;53.422;14.530;2022-07-18T02:40:33;14.39;85.36
66096;SHT31;53861;53.422;14.530;2022-07-18T02:43:01;14.33;85.45
66096;SHT31;53861;53.422;14.530;2022-07-18T02:45:29;14.39;85.60
66096;SHT31;53861;53.422;14.530;2022-07-18T02:47:58;14.50;85.14
66096;SHT31;53861;53.422;14.530;2022-07-18T02:50:26;14.51;85.22
66096;SHT31;53861;53.422;14.530;2022-07-18T02:52:54;14.56;85.04
66096;SHT31;53861;53.422;14.530;2022-07-18T02:55:23;14.57;84.89
66096;SHT31;53861;53.422;14.530;2022-07-18T02:57:50;14.61;85.16
66096;SHT31;53861;53.422;14.530;2022-07-18T03:00:18;14.59;85.01
66096;SHT31;53861;53.422;14.530;2022-07-18T03:02:46;14.64;85.24
66096;SHT31;53861;53.422;14.530;2022-07-18T03:05:15;14.66;85.00
66096;SHT31;53861;53.422;14.530;2022-07-18T03:07:42;14.69;85.21
66096;SHT31;53861;53.422;14.530;2022-07-18T03:10:10;14.67;84.63
66096;SHT31;53861;53.422;14.530;2022-07-18T03:12:40;14.61;85.31
66096;SHT31;53861;53.422;14.530;2022-07-18T03:15:09;14.40;85.85
66096;SHT31;53861;53.422;14.530;2022-07-18T03:17:36;14.36;85.94
66096;SHT31;53861;53.422;14.530;2022-07-18T03:20:05;14.39;86.43
66096;SHT31;53861;53.422;14.530;2022-07-18T03:22:34;14.43;85.86
66096;SHT31;53861;53.422;14.530;2022-07-18T03:25:03;14.43;86.03
66096;SHT31;53861;53.422;14.530;2022-07-18T03:27:30;14.36;86.19
66096;SHT31;53861;53.422;14.530;2022-07-18T03:29:58;14.33;85.70
66096;SHT31;53861;53.422;14.530;2022-07-18T03:32:26;14.37;85.78
66096;SHT31;53861;53.422;14.530;2022-07-18T03:34:54;14.41;86.29
66096;SHT31;53861;53.422;14.530;2022-07-18T03:37:21;14.43;85.37
66096;SHT31;53861;53.422;14.530;2022-07-18T03:39:50;14.46;84.89
66096;SHT31;53861;53.422;14.530;2022-07-18T03:42:18;14.47;84.92
66096;SHT31;53861;53.422;14.530;2022-07-18T03:44:45;14.55;85.56
66096;SHT31;53861;53.422;14.530;2022-07-18T03:47:13;14.57;84.86
66096;SHT31;53861;53.422;14.530;2022-07-18T03:49:41;14.69;85.38
66096;SHT31;53861;53.422;14.530;2022-07-18T03:52:08;14.76;85.02
66096;SHT31;53861;53.422;14.530;2022-07-18T03:54:36;14.80;84.13
66096;SHT31;53861;53.422;14.530;2022-07-18T03:57:05;14.88;84.83
66096;SHT31;53861;53.422;14.530;2022-07-18T03:59:33;14.92;84.35
66096;SHT31;53861;53.422;14.530;2022-07-18T04:02:01;14.98;84.13
66096;SHT31;53861;53.422;14.530;2022-07-18T04:04:29;15.08;83.54
66096;SHT31;53861;53.422;14.530;2022-07-18T04:06:57;15.12;82.71
66096;SHT31;53861;53.422;14.530;2022-07-18T04:09:25;15.21;82.65
66096;SHT31;53861;53.422;14.530;2022-07-18T04:11:53;15.20;82.39
66096;SHT31;53861;53.422;14.530;2022-07-18T04:14:25;15.27;82.80
66096;SHT31;53861;53.422;14.530;2022-07-18T04:16:53;15.34;82.47
66096;SHT31;53861;53.422;14.530;2022-07-18T04:19:21;15.45;82.11
66096;SHT31;53861;53.422;14.530;2022-07-18T04:21:49;15.42;81.52
66096;SHT31;53861;53.422;14.530;2022-07-18T04:24:17;15.44;81.65
66096;SHT31;53861;53.422;14.530;2022-07-18T04:26:45;15.48;81.19
66096;SHT31;53861;53.422;14.530;2022-07-18T04:29:12;15.59;82.56
66096;SHT31;53861;53.422;14.530;2022-07-18T04:31:41;15.58;83.08
66096;SHT31;53861;53.422;14.530;2022-07-18T04:34:09;15.58;83.51
66096;SHT31;53861;53.422;14.530;2022-07-18T04:36:39;15.55;82.54
66096;SHT31;53861;53.422;14.530;2022-07-18T04:39:08;15.63;82.44
66096;SHT31;53861;53.422;14.530;2022-07-18T04:41:35;15.67;82.63
66096;SHT31;53861;53.422;14.530;2022-07-18T04:44:04;15.72;81.82
66096;SHT31;53861;53.422;14.530;2022-07-18T04:46:32;15.76;82.09
66096;SHT31;53861;53.422;14.530;2022-07-18T04:49:02;15.83;81.98
66096;SHT31;53861;53.422;14.530;2022-07-18T04:51:30;15.93;81.89
66096;SHT31;53861;53.422;14.530;2022-07-18T04:53:58;15.96;81.08
66096;SHT31;53861;53.422;14.530;2022-07-18T04:56:26;16.06;81.10
66096;SHT31;53861;53.422;14.530;2022-07-18T04:58:54;16.04;80.86
66096;SHT31;53861;53.422;14.530;2022-07-18T05:01:21;16.07;79.93
66096;SHT31;53861;53.422;14.530;2022-07-18T05:03:49;16.27;80.65
66096;SHT31;53861;53.422;14.530;2022-07-18T05:06:18;16.48;80.07
66096;SHT31;53861;53.422;14.530;2022-07-18T05:08:46;16.60;80.37
66096;SHT31;53861;53.422;14.530;2022-07-18T05:11:14;16.68;79.61
66096;SHT31;53861;53.422;14.530;2022-07-18T05:13:41;16.79;78.51
66096;SHT31;53861;53.422;14.530;2022-07-18T05:16:09;16.94;78.36
66096;SHT31;53861;53.422;14.530;2022-07-18T05:18:36;17.02;79.82
66096;SHT31;53861;53.422;14.530;2022-07-18T05:21:05;17.09;79.17
66096;SHT31;53861;53.422;14.530;2022-07-18T05:23:35;17.20;78.82
66096;SHT31;53861;53.422;14.530;2022-07-18T05:26:03;17.32;81.01
66096;SHT31;53861;53.422;14.530;2022-07-18T05:28:31;17.35;78.36
66096;SHT31;53861;53.422;14.530;2022-07-18T05:30:59;17.51;78.07
66096;SHT31;53861;53.422;14.530;2022-07-18T05:33:26;17.54;78.03
66096;SHT31;53861;53.422;14.530;2022-07-18T05:35:54;17.57;76.36
66096;SHT31;53861;53.422;14.530;2022-07-18T05:38:22;17.73;77.14
66096;SHT31;53861;53.422;14.530;2022-07-18T05:40:51;18.00;76.42
66096;SHT31;53861;53.422;14.530;2022-07-18T05:43:18;17.90;77.99
66096;SHT31;53861;53.422;14.530;2022-07-18T05:45:46;17.96;75.33
66096;SHT31;53861;53.422;14.530;2022-07-18T05:48:14;18.01;77.46
66096;SHT31;53861;53.422;14.530;2022-07-18T05:50:42;17.91;78.42
66096;SHT31;53861;53.422;14.530;2022-07-18T05:53:10;17.90;78.53
66096;SHT31;53861;53.422;14.530;2022-07-18T05:55:38;18.14;77.81
66096;SHT31;53861;53.422;14.530;2022-07-18T05:58:07;18.65;75.15
66096;SHT31;53861;53.422;14.530;2022-07-18T06:00:35;18.93;74.62
66096;SHT31;53861;53.422;14.530;2022-07-18T06:03:03;18.79;74.97
66096;SHT31;53861;53.422;14.530;2022-07-18T06:05:30;19.00;72.70
66096;SHT31;53861;53.422;14.530;2022-07-18T06:07:58;19.24;73.38
66096;SHT31;53861;53.422;14.530;2022-07-18T06:10:26;19.44;74.34
66096;SHT31;53861;53.422;14.530;2022-07-18T06:12:54;19.70;71.17
66096;SHT31;53861;53.422;14.530;2022-07-18T06:15:24;19.91;70.58
66096;SHT31;53861;53.422;14.530;2022-07-18T06:17:52;19.79;72.25
66096;SHT31;53861;53.422;14.530;2022-07-18T06:20:20;19.95;71.01
66096;SHT31;53861;53.422;14.530;2022-07-18T06:22:47;20.19;71.15
66096;SHT31;53861;53.422;14.530;2022-07-18T06:25:15;20.11;68.91
66096;SHT31;53861;53.422;14.530;2022-07-18T06:27:43;20.08;71.29
66096;SHT31;53861;53.422;14.530;2022-07-18T06:30:11;19.98;70.61
66096;SHT31;53861;53.422;14.530;2022-07-18T06:32:40;20.09;69.25
66096;SHT31;53861;53.422;14.530;2022-07-18T06:35:08;20.43;67.99
66096;SHT31;53861;53.422;14.530;2022-07-18T06:37:36;20.56;68.95
66096;SHT31;53861;53.422;14.530;2022-07-18T06:40:05;20.87;67.46
66096;SHT31;53861;53.422;14.530;2022-07-18T06:42:33;21.20;67.52
66096;SHT31;53861;53.422;14.530;2022-07-18T06:45:01;21.64;68.87
66096;SHT31;53861;53.422;14.530;2022-07-18T06:47:30;22.44;64.08
66096;SHT31;53861;53.422;14.530;2022-07-18T06:49:59;23.08;62.36
66096;SHT31;53861;53.422;14.530;2022-07-18T06:52:27;23.37;61.36
66096;SHT31;53861;53.422;14.530;2022-07-18T06:54:55;23.69;62.86
66096;SHT31;53861;53.422;14.530;2022-07-18T06:57:22;23.70;59.03
66096;SHT31;53861;53.422;14.530;2022-07-18T06:59:50;23.88;58.42
66096;SHT31;53861;53.422;14.530;2022-07-18T07:02:19;23.66;60.38
66096;SHT31;53861;53.422;14.530;2022-07-18T07:04:47;23.63;61.17
66096;SHT31;53861;53.422;14.530;2022-07-18T07:07:16;23.78;62.93
66096;SHT31;53861;53.422;14.530;2022-07-18T07:09:44;23.83;57.66
66096;SHT31;53861;53.422;14.530;2022-07-18T07:12:12;23.86;60.84
66096;SHT31;53861;53.422;14.530;2022-07-18T07:14:40;24.07;57.05
66096;SHT31;53861;53.422;14.530;2022-07-18T07:17:07;24.37;61.98
66096;SHT31;53861;53.422;14.530;2022-07-18T07:19:35;24.20;58.43
66096;SHT31;53861;53.422;14.530;2022-07-18T07:22:02;24.56;61.06
66096;SHT31;53861;53.422;14.530;2022-07-18T07:24:31;25.14;59.62
66096;SHT31;53861;53.422;14.530;2022-07-18T07:26:59;25.82;56.07
66096;SHT31;53861;53.422;14.530;2022-07-18T07:29:26;26.05;56.28
66096;SHT31;53861;53.422;14.530;2022-07-18T07:31:54;26.72;53.30
66096;SHT31;53861;53.422;14.530;2022-07-18T07:34:22;26.86;52.59
66096;SHT31;53861;53.422;14.530;2022-07-18T07:36:50;26.86;53.80
66096;SHT31;53861;53.422;14.530;2022-07-18T07:39:17;27.57;49.17
66096;SHT31;53861;53.422;14.530;2022-07-18T07:41:46;27.74;50.51
66096;SHT31;53861;53.422;14.530;2022-07-18T07:44:14;27.78;47.63
66096;SHT31;53861;53.422;14.530;2022-07-18T07:46:42;28.07;45.52
66096;SHT31;53861;53.422;14.530;2022-07-18T07:49:09;28.08;47.50
66096;SHT31;53861;53.422;14.530;2022-07-18T07:51:37;28.38;46.92
66096;SHT31;53861;53.422;14.530;2022-07-18T07:54:04;28.73;50.03
66096;SHT31;53861;53.422;14.530;2022-07-18T07:56:32;29.50;50.81
66096;SHT31;53861;53.422;14.530;2022-07-18T07:59:02;29.46;44.34
66096;SHT31;53861;53.422;14.530;2022-07-18T08:01:29;29.30;45.51
66096;SHT31;53861;53.422;14.530;2022-07-18T08:03:57;29.33;42.78
66096;SHT31;53861;53.422;14.530;2022-07-18T08:06:25;29.27;42.86
66096;SHT31;53861;53.422;14.530;2022-07-18T08:08:52;29.14;45.04
66096;SHT31;53861;53.422;14.530;2022-07-18T08:11:21;29.37;44.30
66096;SHT31;53861;53.422;14.530;2022-07-18T08:13:49;30.11;43.76
66096;SHT31;53861;53.422;14.530;2022-07-18T08:16:18;31.58;41.14
66096;SHT31;53861;53.422;14.530;2022-07-18T08:18:45;30.75;41.51
66096;SHT31;53861;53.422;14.530;2022-07-18T08:21:13;31.33;43.82
66096;SHT31;53861;53.422;14.530;2022-07-18T08:23:41;31.82;41.70
66096;SHT31;53861;53.422;14.530;2022-07-18T08:26:09;30.97;44.18
66096;SHT31;53861;53.422;14.530;2022-07-18T08:28:36;30.55;43.02
66096;SHT31;53861;53.422;14.530;2022-07-18T08:31:04;30.00;43.32
66096;SHT31;53861;53.422;14.530;2022-07-18T08:33:33;30.56;44.77
66096;SHT31;53861;53.422;14.530;2022-07-18T08:36:01;29.84;45.61
66096;SHT31;53861;53.422;14.530;2022-07-18T08:38:29;28.22;45.71
66096;SHT31;53861;53.422;14.530;2022-07-18T08:40:56;28.55;48.03
66096;SHT31;53861;53.422;14.530;2022-07-18T08:43:25;29.97;44.20
66096;SHT31;53861;53.422;14.530;2022-07-18T08:45:55;30.14;41.81
66096;SHT31;53861;53.422;14.530;2022-07-18T08:48:23;30.72;43.17
66096;SHT31;53861;53.422;14.530;2022-07-18T08:50:53;31.47;42.13
66096;SHT31;53861;53.422;14.530;2022-07-18T08:53:21;31.61;42.54
66096;SHT31;53861;53.422;14.530;2022-07-18T08:55:48;31.37;40.44
66096;SHT31;53861;53.422;14.530;2022-07-18T08:58:16;31.28;42.12
66096;SHT31;53861;53.422;14.530;2022-07-18T09:00:44;31.07;41.39
66096;SHT31;53861;53.422;14.530;2022-07-18T09:03:12;31.91;43.29
66096;SHT31;53861;53.422;14.530;2022-07-18T09:05:40;30.45;43.93
66096;SHT31;53861;53.422;14.530;2022-07-18T09:08:12;29.55;41.46
66096;SHT31;53861;53.422;14.530;2022-07-18T09:10:47;30.62;46.51
66096;SHT31;53861;53.422;14.530;2022-07-18T09:13:16;31.40;46.00
66096;SHT31;53861;53.422;14.530;2022-07-18T09:15:58;31.04;47.69
66096;SHT31;53861;53.422;14.530;2022-07-18T09:18:27;30.00;47.19
66096;SHT31;53861;53.422;14.530;2022-07-18T09:20:59;30.08;45.51
66096;SHT31;53861;53.422;14.530;2022-07-18T09:23:30;29.65;43.60
66096;SHT31;53861;53.422;14.530;2022-07-18T09:25:59;30.60;43.09
66096;SHT31;53861;53.422;14.530;2022-07-18T09:28:27;30.63;42.60
66096;SHT31;53861;53.422;14.530;2022-07-18T09:30:55;30.65;40.93
66096;SHT31;53861;53.422;14.530;2022-07-18T09:33:24;29.44;46.60
66096;SHT31;53861;53.422;14.530;2022-07-18T09:35:52;28.56;45.77
66096;SHT31;53861;53.422;14.530;2022-07-18T09:38:21;28.39;48.72
66096;SHT31;53861;53.422;14.530;2022-07-18T09:40:53;28.10;50.40
66096;SHT31;53861;53.422;14.530;2022-07-18T09:43:25;28.10;48.30
66096;SHT31;53861;53.422;14.530;2022-07-18T09:45:55;27.83;51.33
66096;SHT31;53861;53.422;14.530;2022-07-18T09:48:24;27.16;49.52
66096;SHT31;53861;53.422;14.530;2022-07-18T09:50:54;27.20;49.75
66096;SHT31;53861;53.422;14.530;2022-07-18T09:53:23;26.62;51.16
66096;SHT31;53861;53.422;14.530;2022-07-18T09:55:55;26.61;48.64
66096;SHT31;53861;53.422;14.530;2022-07-18T09:58:25;26.78;53.26
66096;SHT31;53861;53.422;14.530;2022-07-18T10:00:54;26.91;50.38
66096;SHT31;53861;53.422;14.530;2022-07-18T10:03:22;26.67;51.58
66096;SHT31;53861;53.422;14.530;2022-07-18T10:05:51;26.61;51.74
66096;SHT31;53861;53.422;14.530;2022-07-18T10:08:20;26.62;50.86
66096;SHT31;53861;53.422;14.530;2022-07-18T10:10:50;26.37;51.45
66096;SHT31;53861;53.422;14.530;2022-07-18T10:13:23;26.37;51.70
66096;SHT31;53861;53.422;14.530;2022-07-18T10:15:51;26.34;50.77
66096;SHT31;53861;53.422;14.530;2022-07-18T10:18:20;26.31;50.65
66096;SHT31;53861;53.422;14.530;2022-07-18T10:20:52;27.40;48.67
66096;SHT31;53861;53.422;14.530;2022-07-18T10:23:22;27.76;49.03
66096;SHT31;53861;53.422;14.530;2022-07-18T10:26:06;27.86;48.34
66096;SHT31;53861;53.422;14.530;2022-07-18T10:28:35;27.33;46.26
66096;SHT31;53861;53.422;14.530;2022-07-18T10:31:13;27.50;49.64
66096;SHT31;53861;53.422;14.530;2022-07-18T10:33:43;27.90;52.86
66096;SHT31;53861;53.422;14.530;2022-07-18T10:36:14;28.15;46.92
66096;SHT31;53861;53.422;14.530;2022-07-18T10:39:04;29.74;47.88
66096;SHT31;53861;53.422;14.530;2022-07-18T10:41:37;30.73;44.58
66096;SHT31;53861;53.422;14.530;2022-07-18T10:44:35;31.21;43.56
66096;SHT31;53861;53.422;14.530;2022-07-18T10:47:07;31.17;46.59
66096;SHT31;53861;53.422;14.530;2022-07-18T10:50:07;30.22;43.17
66096;SHT31;53861;53.422;14.530;2022-07-18T10:52:56;29.65;43.21
66096;SHT31;53861;53.422;14.530;2022-07-18T10:55:32;29.23;44.33
66096;SHT31;53861;53.422;14.530;2022-07-18T10:58:20;29.00;44.97
66096;SHT31;53861;53.422;14.530;2022-07-18T11:01:00;30.36;47.75
66096;SHT31;53861;53.422;14.530;2022-07-18T11:03:29;30.33;47.71
66096;SHT31;53861;53.422;14.530;2022-07-18T11:05:57;30.88;38.95
66096;SHT31;53861;53.422;14.530;2022-07-18T11:08:25;30.53;44.61
66096;SHT31;53861;53.422;14.530;2022-07-18T11:11:13;30.33;41.28
66096;SHT31;53861;53.422;14.530;2022-07-18T11:13:45;29.35;44.85
66096;SHT31;53861;53.422;14.530;2022-07-18T11:16:23;29.61;45.04
66096;SHT31;53861;53.422;14.530;2022-07-18T11:19:16;28.79;44.93
66096;SHT31;53861;53.422;14.530;2022-07-18T11:21:45;29.31;44.44
66096;SHT31;53861;53.422;14.530;2022-07-18T11:24:13;29.02;42.50
66096;SHT31;53861;53.422;14.530;2022-07-18T11:26:46;28.55;46.78
66096;SHT31;53861;53.422;14.530;2022-07-18T11:29:16;28.52;47.67
66096;SHT31;53861;53.422;14.530;2022-07-18T11:31:48;28.41;44.68
66096;SHT31;53861;53.422;14.530;2022-07-18T11:34:16;27.59;46.96
66096;SHT31;53861;53.422;14.530;2022-07-18T11:36:46;27.77;44.43
66096;SHT31;53861;53.422;14.530;2022-07-18T11:39:16;26.95;46.56
66096;SHT31;53861;53.422;14.530;2022-07-18T11:41:55;26.74;50.80
66096;SHT31;53861;53.422;14.530;2022-07-18T11:44:22;26.98;50.19
66096;SHT31;53861;53.422;14.530;2022-07-18T11:47:08;27.13;45.60
66096;SHT31;53861;53.422;14.530;2022-07-18T11:49:37;27.22;48.97
66096;SHT31;53861;53.422;14.530;2022-07-18T11:52:06;27.39;47.11
66096;SHT31;53861;53.422;14.530;2022-07-18T11:54:34;27.53;47.42
66096;SHT31;53861;53.422;14.530;2022-07-18T11:57:04;27.15;49.06
66096;SHT31;53861;53.422;14.530;2022-07-18T11:59:39;27.32;49.27
66096;SHT31;53861;53.422;14.530;2022-07-18T12:02:09;27.56;46.24
66096;SHT31;53861;53.422;14.530;2022-07-18T12:04:38;27.61;47.07
66096;SHT31;53861;53.422;14.530;2022-07-18T12:07:16;27.33;49.71
66096;SHT31;53861;53.422;14.530;2022-07-18T12:09:44;27.60;49.94
66096;SHT31;53861;53.422;14.530;2022-07-18T12:12:14;27.63;48.16
66096;SHT31;53861;53.422;14.530;2022-07-18T12:14:42;27.80;46.82
66096;SHT31;53861;53.422;14.530;2022-07-18T12:17:11;27.73;48.08
66096;SHT31;53861;53.422;14.530;2022-07-18T12:19:39;27.86;51.99
66096;SHT31;53861;53.422;14.530;2022-07-18T12:22:11;27.61;50.11
66096;SHT31;53861;53.422;14.530;2022-07-18T12:24:40;28.20;47.00
66096;SHT31;53861;53.422;14.530;2022-07-18T12:27:16;28.39;48.99
66096;SHT31;53861;53.422;14.530;2022-07-18T12:29:59;28.49;47.77
66096;SHT31;53861;53.422;14.530;2022-07-18T12:32:38;28.18;46.06
66096;SHT31;53861;53.422;14.530;2022-07-18T12:35:08;28.34;45.26
66096;SHT31;53861;53.422;14.530;2022-07-18T12:37:36;28.25;44.27
66096;SHT31;53861;53.422;14.530;2022-07-18T12:40:06;27.71;44.81
66096;SHT31;53861;53.422;14.530;2022-07-18T12:42:36;27.33;50.51
66096;SHT31;53861;53.422;14.530;2022-07-18T12:45:05;27.27;45.58
66096;SHT31;53861;53.422;14.530;2022-07-18T12:47:34;27.29;48.75
66096;SHT31;53861;53.422;14.530;2022-07-18T12:50:04;27.02;52.53
66096;SHT31;53861;53.422;14.530;2022-07-18T12:52:33;26.79;50.50
66096;SHT31;53861;53.422;14.530;2022-07-18T12:55:01;26.72;47.10
66096;SHT31;53861;53.422;14.530;2022-07-18T12:57:28;26.75;49.09
66096;SHT31;53861;53.422;14.530;2022-07-18T12:59:56;26.52;54.04
66096;SHT31;53861;53.422;14.530;2022-07-18T13:02:23;26.45;53.28
66096;SHT31;53861;53.422;14.530;2022-07-18T13:04:52;26.75;49.52
66096;SHT31;53861;53.422;14.530;2022-07-18T13:07:20;26.81;46.63
66096;SHT31;53861;53.422;14.530;2022-07-18T13:09:47;26.41;51.51
66096;SHT31;53861;53.422;14.530;2022-07-18T13:12:15;26.54;47.79
66096;SHT31;53861;53.422;14.530;2022-07-18T13:14:43;26.44;50.76
66096;SHT31;53861;53.422;14.530;2022-07-18T13:17:10;26.34;50.94
66096;SHT31;53861;53.422;14.530;2022-07-18T13:19:38;26.37;47.89
66096;SHT31;53861;53.422;14.530;2022-07-18T13:22:07;26.44;46.53
66096;SHT31;53861;53.422;14.530;2022-07-18T13:24:35;26.25;50.30
66096;SHT31;53861;53.422;14.530;2022-07-18T13:27:05;26.03;48.16
66096;SHT31;53861;53.422;14.530;2022-07-18T13:29:33;25.76;48.41
66096;SHT31;53861;53.422;14.530;2022-07-18T13:32:01;25.92;47.34
66096;SHT31;53861;53.422;14.530;2022-07-18T13:34:31;25.87;49.44
66096;SHT31;53861;53.422;14.530;2022-07-18T13:36:58;25.94;49.20
66096;SHT31;53861;53.422;14.530;2022-07-18T13:39:27;26.03;49.89
66096;SHT31;53861;53.422;14.530;2022-07-18T13:41:55;26.04;49.84
66096;SHT31;53861;53.422;14.530;2022-07-18T13:44:22;25.98;49.71
66096;SHT31;53861;53.422;14.530;2022-07-18T13:46:50;26.38;51.55
66096;SHT31;53861;53.422;14.530;2022-07-18T13:49:18;26.44;51.73
66096;SHT31;53861;53.422;14.530;2022-07-18T13:51:45;26.24;51.59
66096;SHT31;53861;53.422;14.530;2022-07-18T13:54:13;26.24;52.17
66096;SHT31;53861;53.422;14.530;2022-07-18T13:56:44;26.47;53.14
66096;SHT31;53861;53.422;14.530;2022-07-18T13:59:12;26.61;49.04
66096;SHT31;53861;53.422;14.530;2022-07-18T14:01:41;26.91;49.57
66096;SHT31;53861;53.422;14.530;2022-07-18T14:04:08;27.19;47.46
66096;SHT31;53861;53.422;14.530;2022-07-18T14:06:36;27.17;47.53
66096;SHT31;53861;53.422;14.530;2022-07-18T14:09:04;27.25;44.83
66096;SHT31;53861;53.422;14.530;2022-07-18T14:11:39;27.20;48.78
66096;SHT31;53861;53.422;14.530;2022-07-18T14:14:14;27.47;44.71
66096;SHT31;53861;53.422;14.530;2022-07-18T14:16:47;27.76;47.27
66096;SHT31;53861;53.422;14.530;2022-07-18T14:19:14;28.00;46.25
66096;SHT31;53861;53.422;14.530;2022-07-18T14:21:43;27.56;50.65
66096;SHT31;53861;53.422;14.530;2022-07-18T14:24:11;27.47;47.44
66096;SHT31;53861;53.422;14.530;2022-07-18T14:26:39;27.80;45.14
66096;SHT31;53861;53.422;14.530;2022-07-18T14:29:07;27.88;49.78
66096;SHT31;53861;53.422;14.530;2022-07-18T14:31:37;27.94;47.02
66096;SHT31;53861;53.422;14.530;2022-07-18T14:34:05;28.10;50.67
66096;SHT31;53861;53.422;14.530;2022-07-18T14:36:33;28.21;47.52
66096;SHT31;53861;53.422;14.530;2022-07-18T14:39:01;27.91;45.59
66096;SHT31;53861;53.422;14.530;2022-07-18T14:41:29;27.76;45.64
66096;SHT31;53861;53.422;14.530;2022-07-18T14:43:58;28.00;44.47
66096;SHT31;53861;53.422;14.530;2022-07-18T14:46:28;27.96;44.68
66096;SHT31;53861;53.422;14.530;2022-07-18T14:48:58;27.68;49.03
66096;SHT31;53861;53.422;14.530;2022-07-18T14:51:25;27.64;47.15
66096;SHT31;53861;53.422;14.530;2022-07-18T14:53:54;27.74;46.08
66096;SHT31;53861;53.422;14.530;2022-07-18T14:56:26;27.86;46.06
66096;SHT31;53861;53.422;14.530;2022-07-18T14:58:55;27.36;46.66
66096;SHT31;53861;53.422;14.530;2022-07-18T15:01:22;27.50;46.02
66096;SHT31;53861;53.422;14.530;2022-07-18T15:03:51;27.66;45.61
66096;SHT31;53861;53.422;14.530;2022-07-18T15:06:21;27.94;45.78
66096;SHT31;53861;53.422;14.530;2022-07-18T15:08:50;28.05;46.83
66096;SHT31;53861;53.422;14.530;2022-07-18T15:11:17;27.49;46.49
66096;SHT31;53861;53.422;14.530;2022-07-18T15:13:49;27.27;47.03
66096;SHT31;53861;53.422;14.530;2022-07-18T15:16:17;27.57;45.84
66096;SHT31;53861;53.422;14.530;2022-07-18T15:18:45;27.90;45.82
66096;SHT31;53861;53.422;14.530;2022-07-18T15:21:13;27.83;46.45
66096;SHT31;53861;53.422;14.530;2022-07-18T15:23:43;27.42;49.68
66096;SHT31;53861;53.422;14.530;2022-07-18T15:26:11;27.81;46.59
66096;SHT31;53861;53.422;14.530;2022-07-18T15:28:39;27.36;47.88